sensor_id;sensor_type;location;lat;lon;timestamp;pressure;altitude;pressure_sealevel;temperature;humidity
13968;BME280;39536;52.198;9.920;2023-01-27T00:01:49;101414.19;;;1.65;100.00
13968;BME280;39536;52.198;9.920;2023-01-27T00:04:15;101409.06;;;1.65;100.00
13968;BME280;39536;52.198;9.920;2023-01-27T00:06:42;101412.63;;;1.72;100.00
13968;BME280;39536;52.198;9.920;2023-01-27T00:09:10;101410.94;;;1.74;100.00
13968;BME280;39536;52.198;9.920;2023-01-27T00:11:36;101405.81;;;1.74;100.00
13968;BME280;39536;52.198;9.920;2023-01-27T00:14:20;101403.16;;;1.69;100.00
13968;BME280;39536;52.198;9.920;2023-01-27T00:16:48;101396.38;;;1.74;100.00
13968;BME280;39536;52.198;9.920;2023-01-27T00:19:14;101402.47;;;1.78;100.00
13968;BME280;39536;52.198;9.920;2023-01-27T00:21:44;101406.66;;;1.74;100.00
13968;BME280;39536;52.198;9.920;2023-01-27T00:24:29;101398.94;;;1.73;100.00
13968;BME280;39536;52.198;9.920;2023-01-27T00:27:01;101399.91;;;1.79;100.00
13968;BME280;39536;52.198;9.920;2023-01-27T00:29:27;101402.41;;;1.75;100.00
13968;BME280;39536;52.198;9.920;2023-01-27T00:31:54;101401.63;;;1.80;100.00
13968;BME280;39536;52.198;9.920;2023-01-27T00:34:38;101399.13;;;1.83;100.00
13968;BME280;39536;52.198;9.920;2023-01-27T00:37:05;101391.31;;;1.77;100.00
13968;BME280;39536;52.198;9.920;2023-01-27T00:39:33;101391.34;;;1.79;100.00
13968;BME280;39536;52.198;9.920;2023-01-27T00:41:59;101386.97;;;1.73;100.00
13968;BME280;39536;52.198;9.920;2023-01-27T00:44:26;101387.72;;;1.68;100.00
13968;BME280;39536;52.198;9.920;2023-01-27T00:46:52;101387.81;;;1.74;100.00
13968;BME280;39536;52.198;9.920;2023-01-27T00:49:18;101391.28;;;1.76;100.00
13968;BME280;39536;52.198;9.920;2023-01-27T00:51:45;101397.34;;;1.78;100.00
13968;BME280;39536;52.198;9.920;2023-01-27T00:54:11;101393.91;;;1.79;100.00
13968;BME280;39536;52.198;9.920;2023-01-27T00:56:39;101400.00;;;1.84;100.00
13968;BME280;39536;52.198;9.920;2023-01-27T00:59:06;101396.69;;;1.91;100.00
13968;BME280;39536;52.198;9.920;2023-01-27T01:01:32;101404.41;;;1.91;100.00
13968;BME280;39536;52.198;9.920;2023-01-27T01:03:59;101404.41;;;1.91;100.00
13968;BME280;39536;52.198;9.920;2023-01-27T01:06:26;101402.56;;;1.84;100.00
13968;BME280;39536;52.198;9.920;2023-01-27T01:08:55;101403.53;;;1.91;100.00
13968;BME280;39536;52.198;9.920;2023-01-27T01:11:22;101413.75;;;1.88;100.00
13968;BME280;39536;52.198;9.920;2023-01-27T01:13:49;101415.47;;;1.87;100.00
13968;BME280;39536;52.198;9.920;2023-01-27T01:16:18;101409.53;;;1.93;100.00
13968;BME280;39536;52.198;9.920;2023-01-27T01:18:45;101417.25;;;1.91;100.00
13968;BME280;39536;52.198;9.920;2023-01-27T01:21:12;101413.06;;;1.96;100.00
13968;BME280;39536;52.198;9.920;2023-01-27T01:23:40;101420.72;;;1.95;100.00
13968;BME280;39536;52.198;9.920;2023-01-27T01:26:08;101422.53;;;2.00;100.00
13968;BME280;39536;52.198;9.920;2023-01-27T01:28:35;101420.78;;;1.98;100.00
13968;BME280;39536;52.198;9.920;2023-01-27T01:31:07;101425.00;;;1.96;100.00
13968;BME280;39536;52.198;9.920;2023-01-27T01:33:34;101425.81;;;1.90;100.00
13968;BME280;39536;52.198;9.920;2023-01-27T01:36:05;101415.63;;;1.96;100.00
13968;BME280;39536;52.198;9.920;2023-01-27T01:38:32;101424.16;;;1.95;100.00
13968;BME280;39536;52.198;9.920;2023-01-27T01:40:58;101428.41;;;1.93;100.00
13968;BME280;39536;52.198;9.920;2023-01-27T01:43:24;101430.16;;;1.96;100.00
13968;BME280;39536;52.198;9.920;2023-01-27T01:45:54;101429.38;;;2.00;100.00
13968;BME280;39536;52.198;9.920;2023-01-27T01:48:27;101426.75;;;1.97;100.00
13968;BME280;39536;52.198;9.920;2023-01-27T01:50:57;101418.28;;;2.02;100.00
13968;BME280;39536;52.198;9.920;2023-01-27T01:53:30;101419.91;;;1.97;100.00
13968;BME280;39536;52.198;9.920;2023-01-27T01:56:00;101424.22;;;1.98;100.00
13968;BME280;39536;52.198;9.920;2023-01-27T01:58:29;101426.84;;;2.01;100.00
13968;BME280;39536;52.198;9.920;2023-01-27T02:00:55;101421.69;;;2.01;100.00
13968;BME280;39536;52.198;9.920;2023-01-27T02:03:25;101430.38;;;2.08;100.00
13968;BME280;39536;52.198;9.920;2023-01-27T02:05:53;101430.31;;;2.03;100.00
13968;BME280;39536;52.198;9.920;2023-01-27T02:08:23;101432.00;;;2.03;100.00
13968;BME280;39536;52.198;9.920;2023-01-27T02:11:12;101437.09;;;2.01;100.00
13968;BME280;39536;52.198;9.920;2023-01-27T02:13:38;101435.38;;;2.00;100.00
13968;BME280;39536;52.198;9.920;2023-01-27T02:16:06;101444.69;;;1.94;100.00
13968;BME280;39536;52.198;9.920;2023-01-27T02:18:36;101437.84;;;1.94;100.00
13968;BME280;39536;52.198;9.920;2023-01-27T02:21:03;101437.81;;;1.93;100.00
13968;BME280;39536;52.198;9.920;2023-01-27T02:23:39;101443.75;;;1.89;100.00
13968;BME280;39536;52.198;9.920;2023-01-27T02:26:15;101434.25;;;1.84;100.00
13968;BME280;39536;52.198;9.920;2023-01-27T02:28:43;101435.94;;;1.82;100.00
13968;BME280;39536;52.198;9.920;2023-01-27T02:31:10;101432.66;;;1.91;100.00
13968;BME280;39536;52.198;9.920;2023-01-27T02:33:36;101438.66;;;1.92;100.00
13968;BME280;39536;52.198;9.920;2023-01-27T02:36:06;101437.84;;;1.94;100.00
13968;BME280;39536;52.198;9.920;2023-01-27T02:38:36;101437.91;;;1.97;100.00
13968;BME280;39536;52.198;9.920;2023-01-27T02:41:08;101446.47;;;1.98;100.00
13968;BME280;39536;52.198;9.920;2023-01-27T02:43:38;101437.06;;;1.98;100.00
13968;BME280;39536;52.198;9.920;2023-01-27T02:46:04;101435.38;;;2.00;100.00
13968;BME280;39536;52.198;9.920;2023-01-27T02:48:31;101439.66;;;2.00;100.00
13968;BME280;39536;52.198;9.920;2023-01-27T02:50:57;101445.66;;;2.00;100.00
13968;BME280;39536;52.198;9.920;2023-01-27T02:53:24;101442.25;;;2.01;100.00
13968;BME280;39536;52.198;9.920;2023-01-27T02:55:50;101444.81;;;2.00;100.00
13968;BME280;39536;52.198;9.920;2023-01-27T02:58:17;101452.53;;;2.01;100.00
13968;BME280;39536;52.198;9.920;2023-01-27T03:00:44;101455.91;;;1.99;100.00
13968;BME280;39536;52.198;9.920;2023-01-27T03:03:11;101452.47;;;1.97;100.00
13968;BME280;39536;52.198;9.920;2023-01-27T03:05:37;101455.84;;;1.96;100.00
13968;BME280;39536;52.198;9.920;2023-01-27T03:08:04;101451.66;;;2.01;100.00
13968;BME280;39536;52.198;9.920;2023-01-27T03:10:30;101455.09;;;2.00;100.00
13968;BME280;39536;52.198;9.920;2023-01-27T03:12:57;101456.03;;;2.06;100.00
13968;BME280;39536;52.198;9.920;2023-01-27T03:15:23;101455.19;;;2.06;100.00
13968;BME280;39536;52.198;9.920;2023-01-27T03:18:10;101459.47;;;2.07;100.00
13968;BME280;39536;52.198;9.920;2023-01-27T03:20:38;101456.06;;;2.08;100.00
13968;BME280;39536;52.198;9.920;2023-01-27T03:23:05;101458.78;;;2.16;100.00
13968;BME280;39536;52.198;9.920;2023-01-27T03:25:32;101461.34;;;2.16;100.00
13968;BME280;39536;52.198;9.920;2023-01-27T03:27:58;101462.16;;;2.15;100.00
13968;BME280;39536;52.198;9.920;2023-01-27T03:30:25;101461.34;;;2.17;100.00
13968;BME280;39536;52.198;9.920;2023-01-27T03:32:51;101469.97;;;2.19;100.00
13968;BME280;39536;52.198;9.920;2023-01-27T03:35:19;101466.50;;;2.17;100.00
13968;BME280;39536;52.198;9.920;2023-01-27T03:37:47;101463.00;;;2.14;100.00
13968;BME280;39536;52.198;9.920;2023-01-27T03:40:31;101470.88;;;2.21;100.00
13968;BME280;39536;52.198;9.920;2023-01-27T03:43:15;101463.97;;;2.20;100.00
13968;BME280;39536;52.198;9.920;2023-01-27T03:45:59;101468.34;;;2.24;100.00
13968;BME280;39536;52.198;9.920;2023-01-27T03:48:42;101469.16;;;2.23;100.00
13968;BME280;39536;52.198;9.920;2023-01-27T03:51:10;101468.28;;;2.21;100.00
13968;BME280;39536;52.198;9.920;2023-01-27T03:53:36;101464.00;;;2.22;100.00
13968;BME280;39536;52.198;9.920;2023-01-27T03:56:04;101478.63;;;2.26;100.00
13968;BME280;39536;52.198;9.920;2023-01-27T03:58:32;101471.09;;;2.35;100.00
13968;BME280;39536;52.198;9.920;2023-01-27T04:01:01;101474.50;;;2.34;100.00
13968;BME280;39536;52.198;9.920;2023-01-27T04:03:29;101473.72;;;2.40;100.00
13968;BME280;39536;52.198;9.920;2023-01-27T04:06:17;101479.78;;;2.43;100.00
13968;BME280;39536;52.198;9.920;2023-01-27T04:09:02;101476.28;;;2.38;100.00
13968;BME280;39536;52.198;9.920;2023-01-27T04:11:29;101471.94;;;2.36;100.00
13968;BME280;39536;52.198;9.920;2023-01-27T04:14:13;101473.69;;;2.38;100.00
13968;BME280;39536;52.198;9.920;2023-01-27T04:16:40;101476.31;;;2.41;100.00
13968;BME280;39536;52.198;9.920;2023-01-27T04:19:08;101469.41;;;2.39;100.00
13968;BME280;39536;52.198;9.920;2023-01-27T04:21:36;101468.63;;;2.43;100.00
13968;BME280;39536;52.198;9.920;2023-01-27T04:24:03;101467.84;;;2.47;100.00
13968;BME280;39536;52.198;9.920;2023-01-27T04:26:33;101469.56;;;2.46;100.00
13968;BME280;39536;52.198;9.920;2023-01-27T04:29:00;101472.22;;;2.52;100.00
13968;BME280;39536;52.198;9.920;2023-01-27T04:31:27;101477.31;;;2.49;100.00
13968;BME280;39536;52.198;9.920;2023-01-27T04:33:54;101473.84;;;2.47;100.00
13968;BME280;39536;52.198;9.920;2023-01-27T04:36:21;101479.78;;;2.43;100.00
13968;BME280;39536;52.198;9.920;2023-01-27T04:38:49;101489.31;;;2.50;100.00
13968;BME280;39536;52.198;9.920;2023-01-27T04:41:15;101489.44;;;2.58;100.00
13968;BME280;39536;52.198;9.920;2023-01-27T04:43:42;101485.19;;;2.59;100.00
13968;BME280;39536;52.198;9.920;2023-01-27T04:46:08;101488.56;;;2.58;100.00
13968;BME280;39536;52.198;9.920;2023-01-27T04:48:34;101498.75;;;2.50;100.00
13968;BME280;39536;52.198;9.920;2023-01-27T04:51:01;101499.63;;;2.50;100.00
13968;BME280;39536;52.198;9.920;2023-01-27T04:53:27;101508.22;;;2.54;100.00
13968;BME280;39536;52.198;9.920;2023-01-27T04:56:00;101510.06;;;2.61;100.00
13968;BME280;39536;52.198;9.920;2023-01-27T04:58:27;101511.00;;;2.66;100.00
13968;BME280;39536;52.198;9.920;2023-01-27T05:00:53;101516.16;;;2.68;100.00
13968;BME280;39536;52.198;9.920;2023-01-27T05:03:19;101517.09;;;2.73;100.00
13968;BME280;39536;52.198;9.920;2023-01-27T05:05:46;101520.53;;;2.72;100.00
13968;BME280;39536;52.198;9.920;2023-01-27T05:08:12;101511.84;;;2.65;100.00
13968;BME280;39536;52.198;9.920;2023-01-27T05:10:39;101520.38;;;2.63;100.00
13968;BME280;39536;52.198;9.920;2023-01-27T05:13:09;101517.09;;;2.73;100.00
13968;BME280;39536;52.198;9.920;2023-01-27T05:15:35;101520.63;;;2.78;100.00
13968;BME280;39536;52.198;9.920;2023-01-27T05:18:02;101520.56;;;2.75;100.00
13968;BME280;39536;52.198;9.920;2023-01-27T05:20:28;101525.72;;;2.75;100.00
13968;BME280;39536;52.198;9.920;2023-01-27T05:22:55;101521.41;;;2.74;100.00
13968;BME280;39536;52.198;9.920;2023-01-27T05:25:42;101525.75;;;2.78;100.00
13968;BME280;39536;52.198;9.920;2023-01-27T05:28:11;101534.25;;;2.74;100.00
13968;BME280;39536;52.198;9.920;2023-01-27T05:30:37;101530.00;;;2.74;100.00
13968;BME280;39536;52.198;9.920;2023-01-27T05:33:04;101529.16;;;2.77;100.00
13968;BME280;39536;52.198;9.920;2023-01-27T05:35:32;101539.50;;;2.80;100.00
13968;BME280;39536;52.198;9.920;2023-01-27T05:37:59;101536.00;;;2.76;100.00
13968;BME280;39536;52.198;9.920;2023-01-27T05:40:26;101538.56;;;2.75;100.00
13968;BME280;39536;52.198;9.920;2023-01-27T05:42:52;101542.91;;;2.79;100.00
13968;BME280;39536;52.198;9.920;2023-01-27T05:45:20;101548.97;;;2.81;100.00
13968;BME280;39536;52.198;9.920;2023-01-27T05:47:50;101540.47;;;2.87;100.00
13968;BME280;39536;52.198;9.920;2023-01-27T05:50:17;101547.41;;;2.91;100.00
13968;BME280;39536;52.198;9.920;2023-01-27T05:52:43;101545.63;;;2.87;100.00
13968;BME280;39536;52.198;9.920;2023-01-27T05:55:10;101544.81;;;2.91;100.00
13968;BME280;39536;52.198;9.920;2023-01-27T05:57:36;101542.28;;;2.94;100.00
13968;BME280;39536;52.198;9.920;2023-01-27T06:00:03;101553.50;;;2.97;100.00
13968;BME280;39536;52.198;9.920;2023-01-27T06:02:31;101552.69;;;3.01;100.00
13968;BME280;39536;52.198;9.920;2023-01-27T06:04:58;101555.31;;;3.03;100.00
13968;BME280;39536;52.198;9.920;2023-01-27T06:07:24;101558.66;;;2.99;100.00
13968;BME280;39536;52.198;9.920;2023-01-27T06:09:50;101567.22;;;2.96;100.00
13968;BME280;39536;52.198;9.920;2023-01-27T06:12:17;101560.41;;;3.01;100.00
13968;BME280;39536;52.198;9.920;2023-01-27T06:14:43;101564.75;;;3.04;100.00
13968;BME280;39536;52.198;9.920;2023-01-27T06:17:09;101575.88;;;3.03;100.00
13968;BME280;39536;52.198;9.920;2023-01-27T06:19:37;101575.94;;;3.08;100.00
13968;BME280;39536;52.198;9.920;2023-01-27T06:22:04;101570.75;;;3.03;100.00
13968;BME280;39536;52.198;9.920;2023-01-27T06:24:30;101577.59;;;3.03;100.00
13968;BME280;39536;52.198;9.920;2023-01-27T06:26:56;101575.13;;;3.10;100.00
13968;BME280;39536;52.198;9.920;2023-01-27T06:29:23;101575.06;;;3.06;100.00
13968;BME280;39536;52.198;9.920;2023-01-27T06:31:49;101576.75;;;3.04;100.00
13968;BME280;39536;52.198;9.920;2023-01-27T06:34:16;101574.28;;;3.10;100.00
13968;BME280;39536;52.198;9.920;2023-01-27T06:36:43;101573.47;;;3.12;100.00
13968;BME280;39536;52.198;9.920;2023-01-27T06:39:10;101576.94;;;3.16;100.00
13968;BME280;39536;52.198;9.920;2023-01-27T06:41:36;101583.84;;;3.18;100.00
13968;BME280;39536;52.198;9.920;2023-01-27T06:44:03;101583.03;;;3.21;100.00
13968;BME280;39536;52.198;9.920;2023-01-27T06:46:30;101587.28;;;3.20;100.00
13968;BME280;39536;52.198;9.920;2023-01-27T06:48:56;101572.72;;;3.21;100.00
13968;BME280;39536;52.198;9.920;2023-01-27T06:51:23;101577.84;;;3.19;100.00
13968;BME280;39536;52.198;9.920;2023-01-27T06:53:51;101578.75;;;3.21;100.00
13968;BME280;39536;52.198;9.920;2023-01-27T06:56:17;101583.94;;;3.26;100.00
13968;BME280;39536;52.198;9.920;2023-01-27T06:58:43;101586.44;;;3.20;100.00
13968;BME280;39536;52.198;9.920;2023-01-27T07:01:10;101582.94;;;3.15;100.00
13968;BME280;39536;52.198;9.920;2023-01-27T07:03:36;101591.53;;;3.15;100.00
13968;BME280;39536;52.198;9.920;2023-01-27T07:06:03;101595.81;;;3.15;100.00
13968;BME280;39536;52.198;9.920;2023-01-27T07:08:30;101597.50;;;3.14;100.00
13968;BME280;39536;52.198;9.920;2023-01-27T07:11:01;101603.50;;;3.13;100.00
13968;BME280;39536;52.198;9.920;2023-01-27T07:13:27;101605.31;;;3.20;100.00
13968;BME280;39536;52.198;9.920;2023-01-27T07:15:54;101605.28;;;3.19;100.00
13968;BME280;39536;52.198;9.920;2023-01-27T07:18:20;101601.06;;;3.22;100.00
13968;BME280;39536;52.198;9.920;2023-01-27T07:20:47;101601.91;;;3.23;100.00
13968;BME280;39536;52.198;9.920;2023-01-27T07:23:13;101614.78;;;3.23;100.00
13968;BME280;39536;52.198;9.920;2023-01-27T07:25:40;101609.63;;;3.23;100.00
13968;BME280;39536;52.198;9.920;2023-01-27T07:28:10;101607.97;;;3.25;100.00
13968;BME280;39536;52.198;9.920;2023-01-27T07:30:36;101611.34;;;3.21;100.00
13968;BME280;39536;52.198;9.920;2023-01-27T07:33:04;101614.78;;;3.21;100.00
13968;BME280;39536;52.198;9.920;2023-01-27T07:35:31;101619.97;;;3.24;100.00
13968;BME280;39536;52.198;9.920;2023-01-27T07:37:58;101620.03;;;3.29;100.00
13968;BME280;39536;52.198;9.920;2023-01-27T07:40:24;101626.09;;;3.33;100.00
13968;BME280;39536;52.198;9.920;2023-01-27T07:42:57;101629.53;;;3.33;100.00
13968;BME280;39536;52.198;9.920;2023-01-27T07:45:25;101628.56;;;3.27;100.00
13968;BME280;39536;52.198;9.920;2023-01-27T07:47:52;101633.75;;;3.30;100.00
13968;BME280;39536;52.198;9.920;2023-01-27T07:50:21;101629.47;;;3.29;100.00
13968;BME280;39536;52.198;9.920;2023-01-27T07:52:48;101638.06;;;3.29;100.00
13968;BME280;39536;52.198;9.920;2023-01-27T07:55:14;101639.63;;;3.18;100.00
13968;BME280;39536;52.198;9.920;2023-01-27T07:57:41;101641.34;;;3.20;100.00
13968;BME280;39536;52.198;9.920;2023-01-27T08:00:09;101639.72;;;3.24;100.00
13968;BME280;39536;52.198;9.920;2023-01-27T08:02:40;101645.78;;;3.29;100.00
13968;BME280;39536;52.198;9.920;2023-01-27T08:05:08;101651.88;;;3.34;100.00
13968;BME280;39536;52.198;9.920;2023-01-27T08:07:34;101657.03;;;3.36;100.00
13968;BME280;39536;52.198;9.920;2023-01-27T08:10:01;101656.94;;;3.30;100.00
13968;BME280;39536;52.198;9.920;2023-01-27T08:12:28;101660.38;;;3.30;100.00
13968;BME280;39536;52.198;9.920;2023-01-27T08:14:54;101663.84;;;3.31;100.00
13968;BME280;39536;52.198;9.920;2023-01-27T08:17:22;101667.19;;;3.27;100.00
13968;BME280;39536;52.198;9.920;2023-01-27T08:19:49;101674.09;;;3.28;100.00
13968;BME280;39536;52.198;9.920;2023-01-27T08:22:16;101673.34;;;3.35;100.00
13968;BME280;39536;52.198;9.920;2023-01-27T08:24:46;101678.44;;;3.33;100.00
13968;BME280;39536;52.198;9.920;2023-01-27T08:27:12;101682.78;;;3.34;100.00
13968;BME280;39536;52.198;9.920;2023-01-27T08:29:39;101688.78;;;3.36;100.00
13968;BME280;39536;52.198;9.920;2023-01-27T08:32:06;101677.63;;;3.34;100.00
13968;BME280;39536;52.198;9.920;2023-01-27T08:34:33;101685.41;;;3.39;100.00
13968;BME280;39536;52.198;9.920;2023-01-27T08:37:01;101687.22;;;3.43;100.00
13968;BME280;39536;52.198;9.920;2023-01-27T08:39:27;101688.88;;;3.41;100.00
13968;BME280;39536;52.198;9.920;2023-01-27T08:41:53;101687.22;;;3.44;100.00
13968;BME280;39536;52.198;9.920;2023-01-27T08:44:20;101692.41;;;3.46;100.00
13968;BME280;39536;52.198;9.920;2023-01-27T08:46:46;101689.88;;;3.49;100.00
13968;BME280;39536;52.198;9.920;2023-01-27T08:49:13;101699.38;;;3.55;100.00
13968;BME280;39536;52.198;9.920;2023-01-27T08:51:40;101691.59;;;3.52;100.00
13968;BME280;39536;52.198;9.920;2023-01-27T08:54:08;101694.28;;;3.56;100.00
13968;BME280;39536;52.198;9.920;2023-01-27T08:56:35;101706.25;;;3.53;100.00
13968;BME280;39536;52.198;9.920;2023-01-27T08:59:01;101704.50;;;3.52;100.00
13968;BME280;39536;52.198;9.920;2023-01-27T09:01:28;101708.69;;;3.45;100.00
13968;BME280;39536;52.198;9.920;2023-01-27T09:03:54;101708.78;;;3.51;100.00
13968;BME280;39536;52.198;9.920;2023-01-27T09:06:20;101715.69;;;3.52;100.00
13968;BME280;39536;52.198;9.920;2023-01-27T09:08:47;101707.88;;;3.46;100.00
13968;BME280;39536;52.198;9.920;2023-01-27T09:11:34;101718.06;;;3.41;100.00
13968;BME280;39536;52.198;9.920;2023-01-27T09:14:02;101725.91;;;3.47;100.00
13968;BME280;39536;52.198;9.920;2023-01-27T09:16:28;101726.81;;;3.51;100.00
13968;BME280;39536;52.198;9.920;2023-01-27T09:18:55;101729.44;;;3.54;100.00
13968;BME280;39536;52.198;9.920;2023-01-27T09:21:22;101733.63;;;3.46;100.00
13968;BME280;39536;52.198;9.920;2023-01-27T09:23:49;101728.53;;;3.51;100.00
13968;BME280;39536;52.198;9.920;2023-01-27T09:26:15;101732.03;;;3.56;100.00
13968;BME280;39536;52.198;9.920;2023-01-27T09:28:43;101734.69;;;3.60;100.00
13968;BME280;39536;52.198;9.920;2023-01-27T09:31:13;101735.59;;;3.62;100.00
13968;BME280;39536;52.198;9.920;2023-01-27T09:33:49;101736.44;;;3.64;100.00
13968;BME280;39536;52.198;9.920;2023-01-27T09:36:18;101740.78;;;3.65;100.00
13968;BME280;39536;52.198;9.920;2023-01-27T09:38:47;101739.06;;;3.66;100.00
13968;BME280;39536;52.198;9.920;2023-01-27T09:41:29;101743.25;;;3.59;100.00
13968;BME280;39536;52.198;9.920;2023-01-27T09:44:13;101749.31;;;3.63;100.00
13968;BME280;39536;52.198;9.920;2023-01-27T09:46:54;101741.63;;;3.66;100.00
13968;BME280;39536;52.198;9.920;2023-01-27T09:49:38;101743.38;;;3.67;100.00
13968;BME280;39536;52.198;9.920;2023-01-27T09:52:23;101739.94;;;3.66;100.00
13968;BME280;39536;52.198;9.920;2023-01-27T09:55:00;101750.31;;;3.73;100.00
13968;BME280;39536;52.198;9.920;2023-01-27T09:57:37;101756.09;;;3.58;100.00
13968;BME280;39536;52.198;9.920;2023-01-27T10:00:22;101745.06;;;3.65;100.00
13968;BME280;39536;52.198;9.920;2023-01-27T10:03:07;101756.28;;;3.68;100.00
13968;BME280;39536;52.198;9.920;2023-01-27T10:08:36;101740.03;;;3.73;100.00
13968;BME280;39536;52.198;9.920;2023-01-27T10:11:14;101739.13;;;3.69;100.00
13968;BME280;39536;52.198;9.920;2023-01-27T10:13:51;101738.28;;;3.72;100.00
13968;BME280;39536;52.198;9.920;2023-01-27T10:16:32;101747.78;;;3.76;100.00
13968;BME280;39536;52.198;9.920;2023-01-27T10:19:07;101748.66;;;3.76;100.00
13968;BME280;39536;52.198;9.920;2023-01-27T10:21:45;101742.69;;;3.79;100.00
13968;BME280;39536;52.198;9.920;2023-01-27T10:24:27;101744.50;;;3.84;100.00
13968;BME280;39536;52.198;9.920;2023-01-27T10:27:00;101743.63;;;3.85;100.00
13968;BME280;39536;52.198;9.920;2023-01-27T10:29:34;101748.84;;;3.88;100.00
13968;BME280;39536;52.198;9.920;2023-01-27T10:32:07;101740.19;;;3.83;100.00
13968;BME280;39536;52.198;9.920;2023-01-27T10:34:35;101738.47;;;3.84;100.00
13968;BME280;39536;52.198;9.920;2023-01-27T10:37:19;101734.22;;;3.87;100.00
13968;BME280;39536;52.198;9.920;2023-01-27T10:40:00;101732.59;;;3.94;100.00
13968;BME280;39536;52.198;9.920;2023-01-27T10:42:33;101732.66;;;3.99;100.00
13968;BME280;39536;52.198;9.920;2023-01-27T10:45:18;101733.53;;;4.01;100.00
13968;BME280;39536;52.198;9.920;2023-01-27T10:47:57;101738.75;;;4.04;100.00
13968;BME280;39536;52.198;9.920;2023-01-27T10:50:28;101734.41;;;4.01;100.00
13968;BME280;39536;52.198;9.920;2023-01-27T10:53:00;101738.75;;;4.02;100.00
13968;BME280;39536;52.198;9.920;2023-01-27T10:55:35;101739.59;;;4.04;100.00
13968;BME280;39536;52.198;9.920;2023-01-27T10:58:09;101738.69;;;4.01;100.00
13968;BME280;39536;52.198;9.920;2023-01-27T11:00:39;101738.59;;;3.93;100.00
13968;BME280;39536;52.198;9.920;2023-01-27T11:03:12;101741.28;;;3.99;100.00
13968;BME280;39536;52.198;9.920;2023-01-27T11:05:48;101743.84;;;4.01;100.00
13968;BME280;39536;52.198;9.920;2023-01-27T11:08:18;101736.19;;;4.05;100.00
13968;BME280;39536;52.198;9.920;2023-01-27T11:10:48;101737.06;;;4.06;100.00
13968;BME280;39536;52.198;9.920;2023-01-27T11:13:34;101738.00;;;4.14;100.00
13968;BME280;39536;52.198;9.920;2023-01-27T11:16:03;101732.78;;;4.08;100.00
13968;BME280;39536;52.198;9.920;2023-01-27T11:18:34;101731.91;;;4.06;100.00
13968;BME280;39536;52.198;9.920;2023-01-27T11:21:03;101741.41;;;4.08;100.00
13968;BME280;39536;52.198;9.920;2023-01-27T11:23:32;101742.25;;;4.10;100.00
13968;BME280;39536;52.198;9.920;2023-01-27T11:26:05;101737.94;;;4.08;100.00
13968;BME280;39536;52.198;9.920;2023-01-27T11:28:44;101742.19;;;4.04;100.00
13968;BME280;39536;52.198;9.920;2023-01-27T11:31:21;101743.91;;;4.02;100.00
13968;BME280;39536;52.198;9.920;2023-01-27T11:33:54;101740.50;;;4.06;100.00
13968;BME280;39536;52.198;9.920;2023-01-27T11:36:23;101743.81;;;3.98;100.00
13968;BME280;39536;52.198;9.920;2023-01-27T11:38:50;101745.53;;;3.99;100.00
13968;BME280;39536;52.198;9.920;2023-01-27T11:41:17;101748.13;;;3.99;100.00
13968;BME280;39536;52.198;9.920;2023-01-27T11:43:44;101744.66;;;3.97;100.00
13968;BME280;39536;52.198;9.920;2023-01-27T11:46:12;101745.66;;;4.08;100.00
13968;BME280;39536;52.198;9.920;2023-01-27T11:48:42;101748.19;;;4.05;100.00
13968;BME280;39536;52.198;9.920;2023-01-27T11:51:17;101749.06;;;4.02;100.00
13968;BME280;39536;52.198;9.920;2023-01-27T11:53:47;101742.78;;;3.83;100.00
13968;BME280;39536;52.198;9.920;2023-01-27T11:56:18;101747.00;;;3.80;100.00
13968;BME280;39536;52.198;9.920;2023-01-27T11:58:48;101743.50;;;3.76;100.00
13968;BME280;39536;52.198;9.920;2023-01-27T12:01:16;101744.41;;;3.78;100.00
13968;BME280;39536;52.198;9.920;2023-01-27T12:03:50;101745.22;;;3.76;100.00
13968;BME280;39536;52.198;9.920;2023-01-27T12:06:29;101740.16;;;3.80;100.00
13968;BME280;39536;52.198;9.920;2023-01-27T12:08:56;101743.63;;;3.84;100.00
13968;BME280;39536;52.198;9.920;2023-01-27T12:11:24;101747.06;;;3.86;100.00
13968;BME280;39536;52.198;9.920;2023-01-27T12:13:54;101735.13;;;3.91;100.00
13968;BME280;39536;52.198;9.920;2023-01-27T12:16:25;101739.22;;;3.77;100.00
13968;BME280;39536;52.198;9.920;2023-01-27T12:18:55;101735.81;;;3.79;100.00
13968;BME280;39536;52.198;9.920;2023-01-27T12:21:37;101738.31;;;3.73;100.00
13968;BME280;39536;52.198;9.920;2023-01-27T12:24:12;101739.28;;;3.81;100.00
13968;BME280;39536;52.198;9.920;2023-01-27T12:26:43;101731.56;;;3.83;100.00
13968;BME280;39536;52.198;9.920;2023-01-27T12:29:15;101733.41;;;3.90;100.00
13968;BME280;39536;52.198;9.920;2023-01-27T12:31:46;101728.25;;;3.90;100.00
13968;BME280;39536;52.198;9.920;2023-01-27T12:34:24;101729.84;;;3.82;100.00
13968;BME280;39536;52.198;9.920;2023-01-27T12:36:53;101721.25;;;3.83;100.00
13968;BME280;39536;52.198;9.920;2023-01-27T12:39:27;101717.00;;;3.85;100.00
13968;BME280;39536;52.198;9.920;2023-01-27T12:41:55;101727.31;;;3.83;100.00
13968;BME280;39536;52.198;9.920;2023-01-27T12:44:22;101722.13;;;3.82;100.00
13968;BME280;39536;52.198;9.920;2023-01-27T12:46:58;101724.72;;;3.83;100.00
13968;BME280;39536;52.198;9.920;2023-01-27T12:49:31;101723.88;;;3.84;100.00
13968;BME280;39536;52.198;9.920;2023-01-27T12:52:01;101721.31;;;3.86;100.00
13968;BME280;39536;52.198;9.920;2023-01-27T12:54:29;101723.03;;;3.85;100.00
13968;BME280;39536;52.198;9.920;2023-01-27T12:57:01;101723.88;;;3.84;100.00
13968;BME280;39536;52.198;9.920;2023-01-27T12:59:28;101720.41;;;3.82;100.00
13968;BME280;39536;52.198;9.920;2023-01-27T13:02:02;101728.16;;;3.84;100.00
13968;BME280;39536;52.198;9.920;2023-01-27T13:04:37;101719.56;;;3.83;100.00
13968;BME280;39536;52.198;9.920;2023-01-27T13:07:07;101719.63;;;3.88;100.00